createdAt,value
2023-02-23T00:02:15.072Z,18.95
2023-02-23T00:05:18.210Z,17.98
2023-02-23T00:08:20.728Z,14.98
2023-02-23T00:11:23.858Z,18.13
2023-02-23T00:14:27.888Z,17.10
2023-02-23T00:17:31.628Z,19.52
2023-02-23T00:20:34.684Z,13.38
2023-02-23T00:23:38.860Z,15.68
2023-02-23T00:26:45.553Z,14.48
2023-02-23T00:29:49.900Z,14.52
2023-02-23T00:32:52.618Z,13.93
2023-02-23T00:35:55.665Z,13.38
2023-02-23T00:39:00.628Z,14.55
2023-02-23T00:42:03.315Z,12.63
2023-02-23T00:45:11.107Z,12.50
2023-02-23T00:48:13.537Z,16.33
2023-02-23T00:51:17.647Z,15.55
2023-02-23T00:54:22.197Z,15.93
2023-02-23T00:57:24.560Z,14.32
2023-02-23T01:00:26.897Z,16.48
2023-02-23T01:03:30.925Z,13.00
2023-02-23T01:06:33.445Z,11.55
2023-02-23T01:09:35.828Z,13.68
2023-02-23T01:12:40.080Z,14.57
2023-02-23T01:15:43.882Z,15.52
2023-02-23T01:21:49.005Z,14.40
2023-02-23T01:24:52.998Z,14.02
2023-02-23T01:27:55.937Z,15.52
2023-02-23T01:30:58.328Z,14.23
2023-02-23T01:34:02.126Z,19.70
2023-02-23T01:37:06.094Z,14.88
2023-02-23T01:40:28.788Z,15.05
2023-02-23T01:43:31.289Z,19.08
2023-02-23T01:46:41.707Z,21.48
2023-02-23T01:49:44.089Z,19.08
2023-02-23T01:52:48.352Z,14.07
2023-02-23T01:55:55.170Z,15.02
2023-02-23T01:59:00.334Z,13.70
2023-02-23T02:02:05.508Z,12.98
2023-02-23T02:05:13.738Z,15.70
2023-02-23T02:08:16.601Z,14.63
2023-02-23T02:11:36.404Z,16.57
2023-02-23T02:14:39.150Z,15.07
2023-02-23T02:18:09.680Z,14.75
2023-02-23T02:21:31.827Z,15.73
2023-02-23T02:24:52.598Z,17.10
2023-02-23T02:28:22.360Z,16.08
2023-02-23T02:31:49.675Z,16.90
2023-02-23T02:35:10.702Z,18.92
2023-02-23T02:38:55.886Z,18.15
2023-02-23T02:42:04.060Z,17.95
2023-02-23T02:45:14.943Z,13.80
2023-02-23T02:48:42.377Z,18.75
2023-02-23T02:52:08.886Z,17.20
2023-02-23T02:55:24.957Z,31.15
2023-02-23T02:58:27.759Z,28.17
2023-02-23T03:01:50.006Z,13.57
2023-02-23T03:05:10.859Z,12.68
2023-02-23T03:08:55.529Z,20.15
2023-02-23T03:12:27.392Z,18.02
2023-02-23T03:15:54.274Z,19.70
2023-02-23T03:19:50.205Z,21.30
2023-02-23T03:23:21.386Z,18.38
2023-02-23T03:26:58.892Z,21.40
2023-02-23T03:30:28.708Z,16.88
2023-02-23T03:33:58.900Z,16.45
2023-02-23T03:38:00.685Z,22.77
2023-02-23T03:41:23.580Z,19.92
2023-02-23T03:44:50.332Z,23.55
2023-02-23T03:48:12.953Z,19.48
2023-02-23T03:51:34.295Z,22.75
2023-02-23T03:55:00.535Z,15.52
2023-02-23T03:58:26.283Z,18.45
2023-02-23T04:01:47.334Z,15.63
2023-02-23T04:05:09.196Z,15.63
2023-02-23T04:08:33.718Z,17.65
2023-02-23T04:12:08.213Z,16.38
2023-02-23T04:18:25.785Z,18.27
2023-02-23T04:21:28.194Z,25.00
2023-02-23T04:24:30.647Z,18.25
2023-02-23T04:27:33.078Z,16.88
2023-02-23T04:30:35.712Z,19.00
2023-02-23T04:33:38.003Z,22.20
2023-02-23T04:36:40.962Z,20.05
2023-02-23T04:39:48.545Z,23.07
2023-02-23T04:42:51.367Z,28.00
2023-02-23T04:45:53.706Z,18.58
2023-02-23T04:48:56.028Z,25.25
2023-02-23T04:51:58.272Z,37.00
2023-02-23T04:55:00.631Z,44.78
2023-02-23T04:58:03.427Z,20.50
2023-02-23T05:01:10.039Z,14.93
2023-02-23T05:04:12.423Z,21.75
2023-02-23T05:07:14.736Z,22.95
2023-02-23T05:10:17.475Z,22.60
2023-02-23T05:13:20.752Z,22.73
2023-02-23T05:16:23.678Z,33.47
2023-02-23T05:19:26.033Z,25.87
2023-02-23T05:22:28.304Z,23.83
2023-02-23T05:25:30.680Z,22.17
2023-02-23T05:28:34.689Z,21.98
2023-02-23T05:31:37.593Z,31.48
2023-02-23T05:34:40.067Z,20.38
2023-02-23T05:37:42.665Z,24.33
2023-02-23T05:40:45.214Z,21.27
2023-02-23T05:43:51.342Z,22.50
2023-02-23T05:46:54.131Z,25.25
2023-02-23T05:49:56.654Z,22.50
2023-02-23T05:52:58.934Z,24.60
2023-02-23T05:56:02.663Z,25.50
2023-02-23T06:02:07.469Z,67.57
2023-02-23T06:05:10.861Z,27.10
2023-02-23T06:08:13.811Z,19.45
2023-02-23T06:11:16.386Z,18.77
2023-02-23T06:14:18.994Z,24.10
2023-02-23T06:17:21.590Z,27.67
2023-02-23T06:20:24.072Z,21.38
2023-02-23T06:23:26.653Z,22.33
2023-02-23T06:26:29.766Z,38.17
2023-02-23T06:29:32.036Z,16.02
2023-02-23T06:32:34.587Z,29.08
2023-02-23T06:35:40.097Z,49.78
2023-02-23T06:38:43.007Z,30.33
2023-02-23T06:41:45.676Z,17.38
2023-02-23T06:44:48.247Z,31.90
2023-02-23T06:47:50.774Z,20.52
2023-02-23T06:50:53.528Z,18.13
2023-02-23T06:53:56.186Z,21.73
2023-02-23T06:56:59.266Z,25.88
2023-02-23T07:00:02.121Z,22.25
2023-02-23T07:03:04.798Z,27.50
2023-02-23T07:06:07.346Z,19.05
2023-02-23T07:09:09.929Z,23.88
2023-02-23T07:12:12.350Z,16.65
2023-02-23T07:15:17.885Z,24.08
2023-02-23T07:18:20.236Z,26.48
2023-02-23T07:21:23.155Z,24.92
2023-02-23T07:24:27.580Z,12.77
2023-02-23T07:27:30.420Z,21.27
2023-02-23T07:30:32.962Z,20.37
2023-02-23T07:33:36.326Z,21.52
2023-02-23T07:36:39.476Z,14.20
2023-02-23T07:39:42.064Z,18.35
2023-02-23T07:42:44.766Z,19.10
2023-02-23T07:45:47.399Z,19.85
2023-02-23T07:48:49.863Z,20.50
2023-02-23T07:51:52.749Z,38.53
2023-02-23T07:54:58.279Z,24.13
2023-02-23T08:01:02.988Z,40.60
2023-02-23T08:04:05.753Z,24.20
2023-02-23T08:07:08.789Z,20.80
2023-02-23T08:10:11.925Z,16.80
2023-02-23T08:13:14.313Z,18.17
2023-02-23T08:16:18.677Z,31.80
2023-02-23T08:19:22.995Z,25.48
2023-02-23T08:22:25.341Z,39.03
2023-02-23T08:25:27.729Z,31.20
2023-02-23T08:28:30.725Z,27.13
2023-02-23T08:31:33.266Z,38.45
2023-02-23T08:34:43.452Z,37.83
2023-02-23T08:37:46.157Z,34.38
2023-02-23T08:40:48.642Z,18.63
2023-02-23T08:43:51.145Z,23.17
2023-02-23T08:46:55.447Z,23.13
2023-02-23T08:49:57.902Z,27.50
2023-02-23T08:53:00.314Z,22.92
2023-02-23T08:56:06.199Z,25.83
2023-02-23T08:59:09.660Z,32.25
2023-02-23T09:02:13.818Z,15.93
2023-02-23T09:05:16.672Z,22.27
2023-02-23T09:08:19.876Z,23.73
2023-02-23T09:11:23.077Z,18.20
2023-02-23T09:14:25.610Z,19.95
2023-02-23T09:17:28.104Z,21.25
2023-02-23T09:20:30.590Z,18.08
2023-02-23T09:23:34.024Z,18.85
2023-02-23T09:26:40.179Z,16.77
2023-02-23T09:29:43.657Z,22.88
2023-02-23T09:32:46.179Z,24.10
2023-02-23T09:35:48.655Z,24.92
2023-02-23T09:38:55.604Z,24.52
2023-02-23T09:42:09.786Z,27.27
2023-02-23T09:48:17.917Z,23.10
2023-02-23T09:51:21.626Z,19.70
2023-02-23T09:57:39.722Z,17.67
2023-02-23T10:00:44.980Z,18.90
2023-02-23T10:04:07.145Z,21.55
2023-02-23T10:07:34.852Z,14.85
2023-02-23T10:10:37.234Z,41.63
2023-02-23T10:14:00.763Z,20.67
2023-02-23T10:17:45.462Z,24.88
2023-02-23T10:21:20.049Z,30.38
2023-02-23T10:24:25.472Z,27.67
2023-02-23T10:27:33.553Z,34.90
2023-02-23T10:30:36.501Z,35.00
2023-02-23T10:33:42.370Z,36.22
2023-02-23T10:37:07.298Z,18.38
2023-02-23T10:40:22.216Z,22.00
2023-02-23T10:43:24.727Z,20.48
2023-02-23T10:46:33.320Z,20.73
2023-02-23T10:49:47.539Z,14.82
2023-02-23T10:52:52.261Z,16.17
2023-02-23T10:56:10.901Z,20.20
2023-02-23T10:59:20.594Z,43.58
2023-02-23T11:02:25.817Z,28.35
2023-02-23T11:05:33.134Z,17.75
2023-02-23T11:08:37.666Z,22.45
2023-02-23T11:11:40.069Z,24.05
2023-02-23T11:14:42.699Z,45.95
2023-02-23T11:17:45.119Z,20.35
2023-02-23T11:20:49.066Z,19.60
2023-02-23T11:23:54.142Z,73.82
2023-02-23T11:27:00.438Z,25.42
2023-02-23T11:30:07.048Z,20.50
2023-02-23T11:33:16.980Z,19.67
2023-02-23T11:36:25.202Z,20.92
2023-02-23T11:39:27.861Z,26.75
2023-02-23T11:42:33.512Z,19.88
2023-02-23T11:45:47.215Z,24.38
2023-02-23T11:48:57.090Z,31.90
2023-02-23T11:51:59.645Z,32.30
2023-02-23T11:55:06.622Z,45.45
2023-02-23T11:58:19.460Z,23.10
2023-02-23T12:01:25.076Z,27.27
2023-02-23T12:04:38.435Z,21.70
2023-02-23T12:07:46.803Z,21.07
2023-02-23T12:10:52.780Z,21.58
2023-02-23T12:14:02.917Z,20.13
2023-02-23T12:17:13.929Z,27.10
2023-02-23T12:20:22.930Z,23.15
2023-02-23T12:23:27.861Z,25.13
2023-02-23T12:26:31.911Z,33.88
2023-02-23T12:33:03.529Z,19.88
2023-02-23T12:36:21.424Z,24.38
2023-02-23T12:39:36.834Z,23.15
2023-02-23T12:42:42.248Z,22.98
2023-02-23T12:46:15.592Z,19.80
2023-02-23T12:49:40.207Z,25.88
2023-02-23T12:52:57.717Z,27.67
2023-02-23T12:56:21.874Z,76.93
2023-02-23T12:59:42.295Z,35.88
2023-02-23T13:02:52.948Z,23.88
2023-02-23T13:06:25.738Z,32.75
2023-02-23T13:09:46.175Z,33.30
2023-02-23T13:12:58.563Z,27.40
2023-02-23T13:16:14.781Z,36.95
2023-02-23T13:19:42.509Z,84.05
2023-02-23T13:23:11.518Z,27.58
2023-02-23T13:26:24.871Z,30.77
2023-02-23T13:29:44.183Z,25.38
2023-02-23T13:32:46.908Z,50.72
2023-02-23T13:35:49.293Z,31.25
2023-02-23T13:39:24.310Z,64.28
2023-02-23T13:42:42.892Z,48.80
2023-02-23T13:45:54.331Z,25.25
2023-02-23T13:49:17.199Z,63.08
2023-02-23T13:52:41.136Z,26.58
2023-02-23T13:55:51.368Z,62.65
2023-02-23T13:59:01.433Z,23.45
2023-02-23T14:03:26.421Z,30.98
2023-02-23T14:06:31.167Z,21.98
2023-02-23T14:09:37.338Z,23.85
2023-02-23T14:12:44.423Z,20.77
2023-02-23T14:15:50.069Z,37.85
2023-02-23T14:18:57.989Z,46.15
2023-02-23T14:22:05.317Z,42.92
2023-02-23T14:25:35.482Z,67.60
2023-02-23T14:28:43.500Z,35.90
2023-02-23T14:32:00.931Z,79.13
2023-02-23T14:35:03.382Z,33.75
2023-02-23T14:38:08.485Z,24.60
2023-02-23T14:41:12.206Z,109.40
2023-02-23T14:44:29.884Z,58.92
2023-02-23T14:47:42.526Z,25.92
2023-02-23T14:50:44.938Z,29.40
2023-02-23T14:53:47.379Z,42.95
2023-02-23T14:56:52.635Z,33.78
2023-02-23T15:00:00.536Z,37.85
2023-02-23T15:03:13.185Z,29.88
2023-02-23T15:06:15.467Z,37.13
2023-02-23T15:09:23.459Z,43.03
2023-02-23T15:12:37.734Z,51.63
2023-02-23T15:15:46.565Z,46.90
2023-02-23T15:18:51.373Z,54.28
2023-02-23T15:21:55.217Z,31.33
2023-02-23T15:25:00.452Z,49.42
2023-02-23T15:28:21.598Z,44.95
2023-02-23T15:31:30.821Z,34.78
2023-02-23T15:34:33.484Z,29.92
2023-02-23T15:37:41.690Z,33.53
2023-02-23T15:40:44.328Z,32.08
2023-02-23T15:43:46.788Z,37.60
2023-02-23T15:46:58.062Z,36.10
2023-02-23T15:50:36.590Z,36.90
2023-02-23T15:53:40.651Z,41.50
2023-02-23T15:56:47.012Z,27.33
2023-02-23T15:59:50.310Z,54.83
2023-02-23T16:02:53.069Z,33.75
2023-02-23T16:06:07.290Z,33.75
2023-02-23T16:09:24.190Z,90.72
2023-02-23T16:12:33.009Z,47.22
2023-02-23T16:15:36.644Z,41.88
2023-02-23T16:18:40.575Z,41.25
2023-02-23T16:21:43.465Z,35.28
2023-02-23T16:24:46.081Z,27.50
2023-02-23T16:27:56.222Z,30.35
2023-02-23T16:30:58.692Z,52.10
2023-02-23T16:34:01.788Z,36.70
2023-02-23T16:37:15.780Z,39.33
2023-02-23T16:40:18.733Z,34.33
2023-02-23T16:43:21.792Z,31.30
2023-02-23T16:46:26.239Z,34.95
2023-02-23T16:52:33.247Z,28.20
2023-02-23T16:55:39.944Z,31.40
2023-02-23T16:58:46.878Z,43.35
2023-02-23T17:01:50.124Z,33.50
2023-02-23T17:04:58.951Z,23.03
2023-02-23T17:08:01.477Z,36.47
2023-02-23T17:11:04.888Z,29.30
2023-02-23T17:14:07.570Z,38.38
2023-02-23T17:17:15.721Z,39.47
2023-02-23T17:20:21.609Z,32.90
2023-02-23T17:23:28.624Z,47.50
2023-02-23T17:26:30.937Z,43.60
2023-02-23T17:29:33.374Z,31.55
2023-02-23T17:32:36.458Z,38.90
2023-02-23T17:35:39.116Z,37.38
2023-02-23T17:38:44.933Z,34.38
2023-02-23T17:41:47.700Z,33.20
2023-02-23T17:44:50.119Z,34.15
2023-02-23T17:47:52.937Z,30.90
2023-02-23T17:51:03.640Z,32.28
2023-02-23T17:54:06.467Z,34.60
2023-02-23T17:57:08.814Z,31.77
2023-02-23T18:00:13.022Z,78.15
2023-02-23T18:03:16.967Z,50.50
2023-02-23T18:06:20.104Z,29.52
2023-02-23T18:09:22.513Z,31.63
2023-02-23T18:12:24.902Z,42.72
2023-02-23T18:15:27.343Z,43.30
2023-02-23T18:18:29.884Z,56.50
2023-02-23T18:21:34.727Z,56.15
2023-02-23T18:24:38.375Z,37.08
2023-02-23T18:27:40.695Z,61.28
2023-02-23T18:30:43.284Z,55.92
2023-02-23T18:33:49.714Z,45.72
2023-02-23T18:36:52.118Z,46.58
2023-02-23T18:39:57.086Z,42.50
2023-02-23T18:42:59.782Z,44.70
2023-02-23T18:46:06.578Z,37.80
2023-02-23T18:49:13.904Z,45.85
2023-02-23T18:52:16.527Z,39.67
2023-02-23T18:55:19.986Z,42.45
2023-02-23T18:58:22.493Z,31.52
2023-02-23T19:01:27.362Z,46.63
2023-02-23T19:04:29.841Z,47.03
2023-02-23T19:07:32.715Z,47.03
2023-02-23T19:10:36.498Z,47.20
2023-02-23T19:13:38.891Z,59.00
2023-02-23T19:16:41.535Z,55.53
2023-02-23T19:19:43.884Z,58.55
2023-02-23T19:22:46.640Z,64.05
2023-02-23T19:25:50.311Z,48.97
2023-02-23T19:28:53.158Z,48.53
2023-02-23T19:31:55.814Z,39.47
2023-02-23T19:34:58.252Z,41.20
2023-02-23T19:38:02.599Z,41.40
2023-02-23T19:41:08.172Z,40.97
2023-02-23T19:44:10.926Z,42.55
2023-02-23T19:47:13.366Z,39.28
2023-02-23T19:50:19.139Z,38.80
2023-02-23T19:53:21.697Z,44.28
2023-02-23T19:56:28.338Z,36.13
2023-02-23T19:59:30.880Z,43.92
2023-02-23T20:02:33.609Z,38.40
2023-02-23T20:05:42.828Z,61.03
2023-02-23T20:08:47.179Z,72.72
2023-02-23T20:11:49.490Z,398.15
2023-02-23T20:14:51.942Z,748.65
2023-02-23T20:17:54.267Z,251.23
2023-02-23T20:20:56.732Z,93.68
2023-02-23T20:24:01.000Z,120.55
2023-02-23T20:27:03.437Z,55.42
2023-02-23T20:30:06.927Z,73.57
2023-02-23T20:33:11.920Z,45.97
2023-02-23T20:36:14.291Z,76.10
2023-02-23T20:39:17.018Z,80.53
2023-02-23T20:42:19.624Z,72.68
2023-02-23T20:45:24.044Z,185.68
2023-02-23T20:48:27.464Z,112.93
2023-02-23T20:51:29.944Z,67.28
2023-02-23T20:54:33.422Z,58.80
2023-02-23T20:57:36.320Z,36.90
2023-02-23T21:00:39.065Z,51.08
2023-02-23T21:03:41.506Z,41.47
2023-02-23T21:06:44.472Z,49.25
2023-02-23T21:09:46.992Z,53.58
2023-02-23T21:12:49.646Z,56.15
2023-02-23T21:16:01.055Z,56.45
2023-02-23T21:19:04.429Z,59.30
2023-02-23T21:22:07.221Z,49.17
2023-02-23T21:25:10.993Z,57.85
2023-02-23T21:28:14.958Z,65.88
2023-02-23T21:31:17.771Z,76.40
2023-02-23T21:34:20.950Z,55.13
2023-02-23T21:37:23.451Z,47.20
2023-02-23T21:40:25.932Z,59.88
2023-02-23T21:43:28.279Z,68.55
2023-02-23T21:46:30.582Z,72.38
2023-02-23T21:49:32.918Z,59.90
2023-02-23T21:52:35.304Z,59.85
2023-02-23T21:55:41.741Z,61.55
2023-02-23T21:58:49.292Z,62.97
2023-02-23T22:01:51.882Z,60.28
2023-02-23T22:04:54.581Z,60.50
2023-02-23T22:07:57.088Z,64.95
2023-02-23T22:10:59.429Z,66.85
2023-02-23T22:14:01.836Z,60.03
2023-02-23T22:17:06.515Z,57.17
2023-02-23T22:20:09.761Z,65.07
2023-02-23T22:23:12.249Z,63.07
2023-02-23T22:26:15.316Z,62.80
2023-02-23T22:29:17.694Z,58.65
2023-02-23T22:32:20.428Z,61.60
2023-02-23T22:35:22.833Z,61.35
2023-02-23T22:38:25.263Z,59.25
2023-02-23T22:41:29.784Z,70.68
2023-02-23T22:44:32.143Z,61.50
2023-02-23T22:47:35.463Z,61.70
2023-02-23T22:50:38.324Z,65.15
2023-02-23T22:53:40.913Z,64.05
2023-02-23T22:56:44.184Z,60.88
2023-02-23T22:59:54.832Z,62.13
2023-02-23T23:02:57.186Z,66.03
2023-02-23T23:06:03.750Z,66.28
2023-02-23T23:09:07.736Z,67.82
2023-02-23T23:12:12.170Z,59.63
2023-02-23T23:15:19.473Z,62.22
2023-02-23T23:18:24.677Z,67.38
2023-02-23T23:21:28.257Z,62.67
2023-02-23T23:24:30.732Z,53.70
2023-02-23T23:27:37.326Z,65.93
2023-02-23T23:30:45.788Z,64.72
2023-02-23T23:33:50.695Z,66.57
2023-02-23T23:36:53.538Z,66.95
2023-02-23T23:40:02.127Z,67.35
2023-02-23T23:43:07.638Z,65.28
2023-02-23T23:46:10.794Z,71.07
2023-02-23T23:49:16.156Z,68.03
2023-02-23T23:52:18.518Z,67.82
2023-02-23T23:55:20.859Z,66.93
2023-02-23T23:58:26.848Z,73.03
